Search for airport 
image banner adimage banner adimage banner ad
image banner ad

KSLB - Storm Lake Muni

Located in Storm Lake, United States

ICAO - SLB, IATA - SLB

Data provided by Airmate  

General information

Coordinates: N42°35'50" W95°14'26"
Elevation is 1488 feet MSL.
Magnetic variation is 04° East
View others Airports in Iowa

Operational data

Special qualification required
Current time UTC:
Current local time:
Weather
METAR: KSLB 150955Z AUTO 03003KT 10SM CLR 17/08 A3014 RMK AO2
View NOTAMs / SUP AIP / TFR affecting this airport [VIEW]
Communications frequencies: [VIEW]

Runways:

RWY identifierQFULength (ft)Width (ft)SurfaceLDA (ft)
0666°196295GRASS
24246°196295GRASS
13134°303450CONC
31314°303450CONC
17175°500275CONC
35355°500275CONC

Airport contact information

Address: Storm Lake United States

Other aviation service providers

Flight schools

Bart's Flying Service, Inc.

Bart's Flying Service, Inc.
bartbfs@live.com+1(712)732-6494

Satellite view of KSLB